Time;durP1;ratioP1;P1;durP2;ratioP2;P2;SDS_P1;SDS_P2;PMS_P1;PMS_P2;Temp;Humidity;BMP_temperature;BMP_pressure;BME280_temperature;BME280_humidity;BME280_pressure;Samples;Min_cycle;Max_cycle;Signal;HPM_P1;HPM_P2
2022/04/26 03:36:12;;;;;;;0.22;0.00;;;7.80;99.90;;;;;;5115928;28;20051;-81
2022/04/26 03:38:43;;;;;;;0.00;0.00;;;7.80;99.90;;;;;;5115934;28;20046;-81
2022/04/26 03:41:10;;;;;;;0.00;0.00;;;7.80;99.90;;;;;;5099172;28;20047;-81
2022/04/26 03:43:36;;;;;;;0.25;0.10;;;7.80;99.90;;;;;;5115700;28;20051;-81
2022/04/26 03:46:01;;;;;;;1.95;0.10;;;7.80;99.90;;;;;;5098488;28;20070;-81
2022/04/26 03:48:28;;;;;;;0.00;0.00;;;7.80;99.90;;;;;;5098568;28;20053;-81
2022/04/26 03:50:54;;;;;;;0.55;0.30;;;7.80;99.90;;;;;;5098632;28;20039;-81
2022/04/26 03:53:20;;;;;;;0.00;0.00;;;7.80;99.90;;;;;;5115253;28;20054;-81
2022/04/26 03:55:46;;;;;;;0.10;0.00;;;7.80;99.90;;;;;;5098368;28;20051;-81
2022/04/26 03:58:12;;;;;;;0.10;0.10;;;7.80;99.90;;;;;;5115653;28;20138;-81
2022/04/26 04:00:38;;;;;;;0.08;0.08;;;7.70;99.90;;;;;;5098597;28;20139;-81
2022/04/26 04:03:04;;;;;;;0.90;0.30;;;7.80;99.90;;;;;;5116014;28;20047;-81
2022/04/26 04:05:30;;;;;;;0.90;0.00;;;7.70;99.90;;;;;;5098637;28;20437;-81
2022/04/26 04:07:55;;;;;;;0.85;0.38;;;7.70;99.90;;;;;;5115487;28;20036;-81
2022/04/26 04:10:21;;;;;;;0.00;0.00;;;7.70;99.90;;;;;;5115026;28;20047;-81
2022/04/26 04:12:47;;;;;;;0.00;0.00;;;7.70;99.90;;;;;;5115303;28;20035;-81
2022/04/26 04:15:13;;;;;;;0.00;0.00;;;7.70;99.90;;;;;;5098321;28;20051;-81
2022/04/26 04:17:38;;;;;;;0.20;0.10;;;7.70;99.90;;;;;;5098305;28;20052;-81
2022/04/26 04:20:04;;;;;;;0.00;0.00;;;7.70;99.90;;;;;;5115826;28;20039;-81
2022/04/26 04:22:30;;;;;;;0.00;0.00;;;7.70;99.90;;;;;;5114933;28;20483;-81
2022/04/26 04:24:56;;;;;;;0.00;0.00;;;7.70;99.90;;;;;;5115147;28;20055;-81
2022/04/26 04:27:24;;;;;;;0.00;0.00;;;7.70;99.90;;;;;;5115485;28;20483;-81
2022/04/26 04:29:51;;;;;;;0.52;0.10;;;7.70;99.90;;;;;;5115027;28;20099;-81
2022/04/26 04:32:17;;;;;;;0.57;0.55;;;7.70;99.90;;;;;;5114902;28;20130;-81
2022/04/26 04:34:43;;;;;;;0.00;0.00;;;7.70;99.90;;;;;;5114975;28;20122;-81
2022/04/26 04:37:09;;;;;;;0.00;0.00;;;7.70;99.90;;;;;;5098056;28;20047;-81
2022/04/26 04:39:36;;;;;;;0.00;0.00;;;7.70;99.90;;;;;;5114922;28;20051;-81
2022/04/26 04:42:02;;;;;;;0.00;0.00;;;7.70;99.90;;;;;;5097657;28;20402;-81
2022/04/26 04:44:27;;;;;;;2.10;0.20;;;7.70;99.90;;;;;;5114408;28;20169;-81
2022/04/26 04:46:58;;;;;;;0.35;0.22;;;7.70;99.90;;;;;;5097651;28;20088;-81
2022/04/26 04:49:23;;;;;;;0.00;0.00;;;7.70;99.90;;;;;;5097700;28;20052;-81
2022/04/26 04:51:55;;;;;;;0.20;0.20;;;7.70;99.90;;;;;;5114591;28;20131;-81
2022/04/26 04:54:20;;;;;;;0.00;0.00;;;7.70;99.90;;;;;;5097169;28;20189;-81
2022/04/26 04:56:46;;;;;;;0.00;0.00;;;7.80;99.90;;;;;;5097724;28;20132;-81
2022/04/26 04:59:12;;;;;;;0.00;0.00;;;7.80;99.90;;;;;;5097589;28;20051;-81
2022/04/26 05:01:37;;;;;;;0.00;0.00;;;7.80;99.90;;;;;;5113826;28;20036;-81
2022/04/26 05:04:03;;;;;;;0.05;0.00;;;7.80;99.90;;;;;;5097521;28;20134;-81
2022/04/26 05:06:29;;;;;;;0.00;0.00;;;7.90;99.90;;;;;;5114215;28;20043;-81
2022/04/26 05:08:54;;;;;;;0.30;0.10;;;7.90;99.90;;;;;;5097289;28;20104;-81
2022/04/26 05:11:20;;;;;;;0.00;0.00;;;7.90;99.90;;;;;;5113815;28;20097;-81
2022/04/26 05:13:46;;;;;;;0.00;0.00;;;7.90;99.90;;;;;;5113918;28;20042;-81
2022/04/26 05:16:11;;;;;;;0.00;0.00;;;8.00;99.90;;;;;;5113161;28;20054;-81
2022/04/26 05:18:37;;;;;;;1.08;0.00;;;8.00;99.90;;;;;;5097295;28;20085;-81
2022/04/26 05:21:10;;;;;;;0.00;0.00;;;8.00;99.90;;;;;;5113588;28;20031;-81
2022/04/26 05:26:20;;;;;;;0.35;0.10;;;8.00;99.90;;;;;;5113945;28;20054;-81
2022/04/26 05:28:46;;;;;;;0.00;0.00;;;8.10;99.90;;;;;;5113870;28;20484;-81
2022/04/26 05:31:12;;;;;;;0.10;0.05;;;8.10;99.90;;;;;;5114050;28;20044;-81
2022/04/26 05:33:38;;;;;;;0.43;0.10;;;8.10;99.90;;;;;;5096584;28;20039;-81
2022/04/26 05:36:04;;;;;;;0.43;0.43;;;8.10;99.90;;;;;;5113582;28;20092;-81
2022/04/26 05:38:30;;;;;;;0.00;0.00;;;8.20;99.90;;;;;;5113636;28;20048;-81
2022/04/26 05:40:58;;;;;;;0.00;0.00;;;8.20;99.90;;;;;;5113597;28;20040;-81
2022/04/26 05:43:24;;;;;;;0.22;0.22;;;8.20;99.90;;;;;;5097608;28;20058;-81
2022/04/26 05:45:50;;;;;;;3.10;0.47;;;8.30;99.90;;;;;;5096871;28;20550;-81
2022/04/26 05:48:15;;;;;;;0.08;0.00;;;8.30;99.90;;;;;;5113608;28;20109;-81
2022/04/26 05:50:42;;;;;;;0.35;0.35;;;8.30;99.90;;;;;;5096888;28;20380;-81
2022/04/26 05:53:07;;;;;;;2.65;0.30;;;8.40;99.90;;;;;;5113297;28;20054;-81
2022/04/26 05:55:33;;;;;;;0.00;0.00;;;8.40;99.90;;;;;;5112876;28;20394;-82
2022/04/26 05:57:59;;;;;;;0.10;0.10;;;8.40;99.90;;;;;;5114076;28;20104;-80
2022/04/26 06:00:25;;;;;;;0.00;0.00;;;8.50;99.90;;;;;;5113022;28;20123;-80
2022/04/26 06:02:50;;;;;;;0.00;0.00;;;8.50;99.90;;;;;;5113530;28;20428;-80
2022/04/26 06:05:16;;;;;;;0.00;0.00;;;8.50;99.90;;;;;;5113368;28;20135;-80
2022/04/26 06:07:42;;;;;;;0.00;0.00;;;8.60;99.90;;;;;;5113162;28;20391;-81
2022/04/26 06:10:10;;;;;;;0.30;0.08;;;8.60;99.90;;;;;;5113194;28;20039;-80
2022/04/26 06:12:37;;;;;;;0.00;0.00;;;8.70;99.90;;;;;;5112829;28;20051;-81
2022/04/26 06:15:03;;;;;;;0.30;0.10;;;8.60;99.90;;;;;;5095602;28;20055;-80
2022/04/26 06:17:29;;;;;;;0.50;0.50;;;8.70;99.90;;;;;;5113524;28;20126;-81
2022/04/26 06:19:55;;;;;;;0.00;0.00;;;8.70;99.90;;;;;;5113312;28;20495;-81
2022/04/26 06:22:20;;;;;;;0.00;0.00;;;8.80;99.90;;;;;;5096280;28;20083;-81
2022/04/26 06:24:46;;;;;;;0.00;0.00;;;8.90;99.90;;;;;;5112996;28;20475;-81
2022/04/26 06:27:12;;;;;;;0.35;0.10;;;8.90;99.90;;;;;;5113310;28;20043;-80
2022/04/26 06:29:37;;;;;;;0.10;0.10;;;8.90;99.90;;;;;;5113299;28;20104;-81
2022/04/26 06:32:04;;;;;;;0.20;0.10;;;9.10;99.90;;;;;;5095853;28;20056;-81
2022/04/26 06:34:30;;;;;;;0.00;0.00;;;9.00;99.90;;;;;;5095533;28;20036;-81
2022/04/26 06:36:55;;;;;;;0.20;0.10;;;9.10;99.90;;;;;;5112630;28;20096;-81
2022/04/26 06:39:21;;;;;;;0.00;0.00;;;9.20;99.90;;;;;;5112862;28;20474;-81
2022/04/26 06:41:47;;;;;;;0.30;0.25;;;9.30;99.90;;;;;;5095806;28;20077;-81
2022/04/26 06:44:13;;;;;;;0.85;0.15;;;9.40;99.90;;;;;;5096110;28;20051;-81
2022/04/26 06:46:39;;;;;;;0.20;0.20;;;9.50;99.90;;;;;;5113335;28;20505;-81
2022/04/26 06:49:05;;;;;;;0.05;0.00;;;9.70;99.90;;;;;;5112830;28;20040;-81
2022/04/26 06:51:40;;;;;;;0.00;0.00;;;10.20;99.90;;;;;;5113020;28;20399;-81
2022/04/26 06:54:07;;;;;;;1.98;0.98;;;10.70;99.90;;;;;;5112254;28;20059;-81
2022/04/26 06:56:33;;;;;;;0.00;0.00;;;11.10;99.90;;;;;;5112952;28;20095;-81
2022/04/26 06:58:58;;;;;;;0.00;0.00;;;11.60;99.90;;;;;;5095961;28;20062;-81
2022/04/26 07:01:24;;;;;;;0.30;0.10;;;12.00;99.90;;;;;;5112271;28;20065;-81
2022/04/26 07:03:50;;;;;;;0.63;0.28;;;12.40;99.90;;;;;;5112759;28;20039;-81
2022/04/26 07:06:15;;;;;;;0.00;0.00;;;12.70;99.90;;;;;;5112764;28;20066;-81
2022/04/26 07:08:41;;;;;;;0.00;0.00;;;12.80;99.90;;;;;;5112330;28;20487;-81
2022/04/26 07:11:07;;;;;;;0.75;0.52;;;12.70;99.90;;;;;;5095898;28;20047;-81
2022/04/26 07:13:32;;;;;;;0.63;0.32;;;12.30;99.90;;;;;;5095470;28;20048;-81
2022/04/26 07:15:58;;;;;;;0.15;0.08;;;12.00;99.90;;;;;;5112282;28;20050;-81
2022/04/26 07:18:24;;;;;;;0.00;0.00;;;11.80;99.90;;;;;;5112627;28;20055;-81
2022/04/26 07:20:49;;;;;;;0.00;0.00;;;11.40;99.90;;;;;;5112546;28;20043;-81
2022/04/26 07:23:15;;;;;;;0.00;0.00;;;11.30;99.90;;;;;;5112209;28;20154;-81
2022/04/26 07:25:41;;;;;;;0.00;0.00;;;11.20;99.90;;;;;;5097436;28;20048;-81
2022/04/26 07:28:07;;;;;;;0.00;0.00;;;11.20;99.90;;;;;;5116360;28;20039;-81
2022/04/26 07:30:35;;;;;;;0.00;0.00;;;11.20;99.90;;;;;;5099034;28;20105;-82
2022/04/26 07:35:50;;;;;;;0.55;0.25;;;11.10;99.90;;;;;;5116100;28;20093;-81
2022/04/26 07:38:16;;;;;;;0.00;0.00;;;11.00;99.90;;;;;;5098856;28;20061;-81
2022/04/26 07:40:42;;;;;;;0.00;0.00;;;11.00;99.90;;;;;;5099087;28;20051;-81
2022/04/26 07:43:11;;;;;;;0.00;0.00;;;11.00;99.90;;;;;;5116142;28;20079;-82
2022/04/26 07:45:38;;;;;;;0.00;0.00;;;10.90;99.90;;;;;;5116091;28;20368;-82
2022/04/26 07:48:05;;;;;;;0.20;0.20;;;10.90;99.90;;;;;;5097475;28;20055;-81
2022/04/26 07:50:32;;;;;;;0.10;0.03;;;10.90;99.90;;;;;;5115450;28;20043;-81
2022/04/26 07:52:59;;;;;;;0.00;0.00;;;10.90;99.90;;;;;;5099075;28;20142;-81
2022/04/26 07:55:28;;;;;;;0.63;0.63;;;11.00;99.90;;;;;;5115913;28;20058;-81
2022/04/26 07:57:54;;;;;;;0.00;0.00;;;11.00;99.90;;;;;;5115574;28;20044;-81
2022/04/26 08:00:19;;;;;;;0.00;0.00;;;11.00;99.90;;;;;;5098370;28;20058;-81
2022/04/26 08:02:45;;;;;;;0.00;0.00;;;11.10;99.90;;;;;;5098685;28;20051;-81
2022/04/26 08:05:14;;;;;;;0.38;0.20;;;11.20;99.90;;;;;;5098784;28;20402;-81
2022/04/26 08:07:41;;;;;;;0.10;0.00;;;11.10;99.90;;;;;;5098345;28;20040;-81
2022/04/26 08:10:12;;;;;;;0.10;0.10;;;11.10;99.90;;;;;;5115313;28;20055;-81
2022/04/26 08:12:38;;;;;;;0.50;0.32;;;11.10;99.90;;;;;;5098311;28;20047;-81
2022/04/26 08:15:05;;;;;;;0.08;0.03;;;11.10;99.90;;;;;;5115373;28;20177;-81
2022/04/26 08:17:31;;;;;;;0.20;0.20;;;11.10;99.90;;;;;;5114970;28;20097;-81
2022/04/26 08:19:56;;;;;;;0.80;0.30;;;11.20;99.90;;;;;;5097745;28;20471;-81
2022/04/26 08:22:22;;;;;;;0.00;0.00;;;11.20;99.90;;;;;;5114971;28;20116;-81
2022/04/26 08:27:33;;;;;;;0.00;0.00;;;11.30;99.90;;;;;;5114881;28;20112;-82
2022/04/26 08:30:02;;;;;;;0.05;0.05;;;11.40;99.90;;;;;;5097588;28;20070;-81
2022/04/26 08:32:45;;;;;;;0.00;0.00;;;11.40;99.90;;;;;;5114492;28;20490;-82
2022/04/26 08:35:14;;;;;;;0.00;0.00;;;11.40;99.90;;;;;;5115117;28;20039;-81
2022/04/26 08:37:40;;;;;;;0.10;0.10;;;11.50;99.90;;;;;;5113953;28;20047;-81
2022/04/26 08:40:07;;;;;;;0.08;0.08;;;11.50;99.90;;;;;;5097605;28;20092;-81
2022/04/26 08:42:46;;;;;;;0.10;0.10;;;11.60;99.90;;;;;;5114476;28;20540;-82
2022/04/26 08:45:17;;;;;;;0.40;0.15;;;11.60;99.90;;;;;;5098344;28;20082;-81
2022/04/26 08:53:17;;;;;;;0.00;0.00;;;11.70;99.90;;;;;;5115196;28;19919;-82
2022/04/26 08:55:48;;;;;;;0.65;0.65;;;11.80;99.90;;;;;;5114178;28;20055;-82
2022/04/26 08:58:15;;;;;;;0.22;0.22;;;11.80;99.90;;;;;;5097610;28;20056;-82
2022/04/26 09:01:03;;;;;;;0.00;0.00;;;11.90;99.90;;;;;;5114449;28;20044;-81
2022/04/26 09:03:54;;;;;;;0.93;0.28;;;12.00;99.90;;;;;;5114857;28;20106;-82
2022/04/26 09:06:36;;;;;;;0.00;0.00;;;12.00;99.90;;;;;;5114831;28;20051;-82
2022/04/26 09:09:11;;;;;;;3.40;1.65;;;12.10;99.90;;;;;;5097453;28;20051;-82
2022/04/26 09:11:37;;;;;;;0.00;0.00;;;12.10;99.90;;;;;;5114184;28;20093;-82
2022/04/26 09:14:05;;;;;;;0.00;0.00;;;12.10;99.90;;;;;;5114609;28;20039;-82
2022/04/26 09:16:31;;;;;;;0.28;0.28;;;12.10;99.90;;;;;;5113935;28;20135;-82
2022/04/26 09:19:05;;;;;;;0.00;0.00;;;12.10;99.90;;;;;;5114209;28;20044;-82
2022/04/26 09:21:32;;;;;;;0.20;0.20;;;12.20;99.90;;;;;;5114135;28;20093;-82
2022/04/26 09:24:02;;;;;;;0.00;0.00;;;12.30;99.90;;;;;;5113974;28;20117;-82
2022/04/26 09:26:38;;;;;;;0.20;0.20;;;12.40;99.90;;;;;;5096851;28;20043;-82
2022/04/26 09:29:05;;;;;;;0.00;0.00;;;12.30;99.90;;;;;;5096593;28;20051;-82
2022/04/26 09:31:37;;;;;;;0.00;0.00;;;12.50;99.90;;;;;;5096776;28;20077;-82
2022/04/26 09:34:10;;;;;;;0.00;0.00;;;12.70;99.90;;;;;;5096804;28;20096;-82
2022/04/26 09:36:45;;;;;;;0.00;0.00;;;12.80;99.90;;;;;;5096787;28;20039;-82
2022/04/26 09:39:15;;;;;;;1.10;0.38;;;13.00;99.90;;;;;;5097246;28;20047;-81
2022/04/26 09:41:51;;;;;;;0.00;0.00;;;13.10;99.90;;;;;;5113433;28;20407;-82
2022/04/26 09:44:29;;;;;;;0.15;0.15;;;13.10;99.90;;;;;;5113440;28;20048;-82
2022/04/26 09:46:58;;;;;;;0.00;0.00;;;13.20;99.80;;;;;;5113608;28;20089;-82
2022/04/26 09:49:26;;;;;;;0.17;0.17;;;13.20;99.60;;;;;;5113419;28;20040;-82
2022/04/26 09:51:59;;;;;;;0.00;0.00;;;13.50;99.70;;;;;;5113610;28;20055;-81
2022/04/26 09:54:25;;;;;;;0.10;0.10;;;14.10;98.60;;;;;;5096119;28;20062;-82
2022/04/26 09:56:51;;;;;;;0.00;0.00;;;14.20;96.90;;;;;;5096336;28;20051;-82
2022/04/26 09:59:30;;;;;;;0.00;0.00;;;14.30;96.10;;;;;;5096372;28;20096;-82
2022/04/26 10:01:57;;;;;;;0.00;0.00;;;14.40;96.80;;;;;;5096626;28;20039;-82
2022/04/26 10:04:26;;;;;;;6.07;0.63;;;14.60;96.40;;;;;;5096207;28;20057;-81
2022/04/26 10:06:57;;;;;;;0.00;0.00;;;14.60;95.50;;;;;;5096336;28;20200;-81
2022/04/26 10:09:24;;;;;;;0.00;0.00;;;14.60;95.60;;;;;;5113543;28;20123;-82
2022/04/26 10:11:55;;;;;;;0.40;0.20;;;14.50;94.40;;;;;;5112624;28;20563;-81
2022/04/26 10:14:23;;;;;;;0.00;0.00;;;14.50;95.10;;;;;;5096422;28;20104;-82
2022/04/26 10:16:49;;;;;;;0.32;0.15;;;14.40;93.40;;;;;;5096161;28;20055;-81
2022/04/26 10:19:16;;;;;;;0.10;0.00;;;14.30;92.90;;;;;;5113089;28;20080;-81
2022/04/26 10:21:41;;;;;;;0.10;0.10;;;14.50;93.50;;;;;;5113400;28;20052;-82
2022/04/26 10:24:21;;;;;;;0.00;0.00;;;14.60;93.70;;;;;;5112433;28;20060;-82
2022/04/26 10:26:49;;;;;;;0.00;0.00;;;14.60;93.50;;;;;;5095808;28;20051;-81
2022/04/26 10:29:20;;;;;;;0.00;0.00;;;14.80;94.00;;;;;;5113043;28;20047;-81
2022/04/26 10:32:00;;;;;;;0.00;0.00;;;14.90;93.70;;;;;;5095823;28;20047;-81
2022/04/26 10:34:31;;;;;;;0.00;0.00;;;14.80;93.20;;;;;;5096011;28;20050;-81
2022/04/26 10:37:06;;;;;;;1.20;0.30;;;14.60;92.10;;;;;;5112702;28;20048;-81
2022/04/26 10:39:36;;;;;;;;;;;14.90;92.80;;;;;;5096608;28;20044;-82
2022/04/26 10:42:23;;;;;;;0.00;0.00;;;15.10;92.90;;;;;;5112873;28;20031;-81
2022/04/26 10:44:49;;;;;;;0.00;0.00;;;15.20;91.50;;;;;;5095626;28;20052;-82
2022/04/26 10:47:18;;;;;;;0.10;0.10;;;15.20;91.90;;;;;;5112833;28;20455;-81
2022/04/26 10:49:45;;;;;;;0.00;0.00;;;15.40;91.50;;;;;;5095894;28;20101;-82
2022/04/26 10:52:13;;;;;;;0.00;0.00;;;15.60;92.00;;;;;;5095871;28;20476;-82
2022/04/26 10:54:45;;;;;;;0.00;0.00;;;15.60;90.70;;;;;;5112336;28;20562;-82
2022/04/26 10:57:16;;;;;;;0.05;0.00;;;15.40;89.80;;;;;;5095987;28;20066;-82
2022/04/26 10:59:46;;;;;;;0.00;0.00;;;15.30;90.00;;;;;;5096081;28;20458;-81
2022/04/26 11:02:14;;;;;;;0.00;0.00;;;15.20;89.30;;;;;;5116766;28;20143;-81
2022/04/26 11:04:39;;;;;;;0.00;0.00;;;15.50;90.00;;;;;;5116734;28;20048;-81
2022/04/26 11:07:16;;;;;;;1.00;0.38;;;15.70;89.80;;;;;;5116649;28;20052;-81
2022/04/26 11:09:49;;;;;;;0.32;0.32;;;15.70;88.10;;;;;;5116386;28;20089;-81
2022/04/26 11:12:19;;;;;;;0.00;0.00;;;15.70;87.20;;;;;;5117133;28;20039;-81
2022/04/26 11:14:47;;;;;;;0.00;0.00;;;16.10;89.40;;;;;;5116913;28;20131;-82
2022/04/26 11:17:18;;;;;;;0.08;0.08;;;16.40;86.10;;;;;;5116523;28;20044;-81
2022/04/26 11:19:57;;;;;;;0.00;0.00;;;16.90;89.00;;;;;;5116589;28;20047;-79
2022/04/26 11:22:24;;;;;;;0.00;0.00;;;17.00;84.80;;;;;;5116201;28;20032;-79
2022/04/26 11:27:59;;;;;;;0.00;0.00;;;16.60;82.50;;;;;;5116536;28;20054;-81
2022/04/26 11:30:31;;;;;;;0.00;0.00;;;16.60;83.70;;;;;;5116167;28;20052;-81
2022/04/26 11:33:02;;;;;;;0.00;0.00;;;16.60;82.10;;;;;;5099178;28;20039;-81
2022/04/26 11:35:29;;;;;;;0.25;0.25;;;16.90;85.30;;;;;;5116584;28;20047;-81
2022/04/26 11:38:14;;;;;;;0.00;0.00;;;17.20;81.70;;;;;;5116285;28;20075;-81
2022/04/26 11:40:52;;;;;;;0.00;0.00;;;17.60;81.20;;;;;;5115938;28;20459;-81
2022/04/26 11:43:20;;;;;;;0.00;0.00;;;17.80;79.90;;;;;;5116156;28;20043;-81
2022/04/26 11:45:48;;;;;;;0.00;0.00;;;17.80;76.10;;;;;;5115599;28;20517;-81
2022/04/26 11:48:22;;;;;;;0.00;0.00;;;17.90;77.70;;;;;;5116234;28;20499;-81
2022/04/26 11:50:49;;;;;;;0.00;0.00;;;17.70;75.30;;;;;;5098783;28;20109;-81
2022/04/26 11:53:17;;;;;;;0.00;0.00;;;17.30;77.10;;;;;;5115617;28;20044;-81
2022/04/26 11:55:45;;;;;;;0.00;0.00;;;17.00;76.80;;;;;;5115270;28;20376;-81
2022/04/26 11:58:20;;;;;;;0.10;0.10;;;16.90;77.30;;;;;;5115709;28;20040;-81
2022/04/26 12:01:13;;;;;;;0.00;0.00;;;16.60;75.90;;;;;;5098692;28;20043;-81
2022/04/26 12:03:49;;;;;;;0.00;0.00;;;16.60;78.40;;;;;;5057081;28;20045;-81
2022/04/26 12:06:24;;;;;;;0.00;0.00;;;17.00;81.10;;;;;;5056801;28;20095;-81
2022/04/26 12:08:54;;;;;;;0.00;0.00;;;17.30;77.10;;;;;;5040662;28;20059;-81
2022/04/26 12:11:32;;;;;;;0.00;0.00;;;17.50;75.10;;;;;;5039426;28;20045;-81
2022/04/26 12:14:00;;;;;;;0.00;0.00;;;17.30;74.70;;;;;;5039417;28;20049;-81
2022/04/26 12:16:26;;;;;;;0.00;0.00;;;17.20;73.80;;;;;;5057304;28;20404;-81
2022/04/26 12:19:03;;;;;;;0.00;0.00;;;16.80;74.10;;;;;;5056953;28;20156;-82
2022/04/26 12:21:42;;;;;;;0.00;0.00;;;16.50;74.80;;;;;;5056871;28;20470;-82
2022/04/26 12:24:21;;;;;;;0.00;0.00;;;16.50;75.50;;;;;;5056934;28;20090;-82
2022/04/26 12:26:56;;;;;;;0.00;0.00;;;16.50;73.80;;;;;;5056760;28;20059;-81
2022/04/26 12:29:23;;;;;;;0.00;0.00;;;16.60;71.80;;;;;;5040209;28;20072;-81
2022/04/26 12:31:50;;;;;;;0.00;0.00;;;17.00;71.80;;;;;;5039217;28;20229;-81
2022/04/26 12:34:18;;;;;;;0.00;0.00;;;17.10;71.90;;;;;;5039751;28;20045;-81
2022/04/26 12:37:02;;;;;;;0.30;0.30;;;17.10;71.90;;;;;;5040261;28;20052;-81
2022/04/26 12:39:40;;;;;;;0.00;0.00;;;16.90;69.90;;;;;;5057634;28;20056;-81
2022/04/26 12:42:07;;;;;;;0.00;0.00;;;16.70;70.50;;;;;;5097265;28;20105;-81
2022/04/26 12:44:34;;;;;;;0.00;0.00;;;16.70;72.00;;;;;;5114460;28;20055;-81
2022/04/26 12:52:49;;;;;;;0.00;0.00;;;16.40;73.50;;;;;;5114830;28;20058;-81
2022/04/26 12:55:29;;;;;;;0.00;0.00;;;16.80;73.70;;;;;;5114306;28;20138;-81
2022/04/26 12:57:56;;;;;;;0.00;0.00;;;17.30;73.10;;;;;;5114854;28;20062;-81
2022/04/26 13:00:23;;;;;;;0.00;0.00;;;17.70;70.50;;;;;;5097544;28;20039;-81
2022/04/26 13:02:51;;;;;;;0.00;0.00;;;18.00;70.80;;;;;;5097401;28;20546;-81
2022/04/26 13:05:21;;;;;;;0.10;0.10;;;17.80;69.10;;;;;;5114504;28;20463;-81
2022/04/26 13:07:47;;;;;;;0.00;0.00;;;17.50;67.00;;;;;;5097412;28;20055;-81
2022/04/26 13:10:15;;;;;;;0.00;0.00;;;17.50;68.80;;;;;;5114702;28;20048;-81
2022/04/26 13:12:41;;;;;;;0.00;0.00;;;17.70;70.40;;;;;;5097238;28;20047;-81
2022/04/26 13:15:11;;;;;;;0.45;0.10;;;17.80;69.40;;;;;;5114218;27;20437;-81
2022/04/26 13:17:37;;;;;;;0.00;0.00;;;17.70;67.40;;;;;;5113929;28;20421;-81
2022/04/26 13:20:05;;;;;;;0.00;0.00;;;17.50;65.30;;;;;;5096986;28;20394;-81
2022/04/26 13:22:33;;;;;;;0.00;0.00;;;17.40;68.20;;;;;;5113719;28;20047;-81
2022/04/26 13:24:59;;;;;;;0.00;0.00;;;17.00;68.10;;;;;;5113457;28;20098;-81
2022/04/26 13:27:25;;;;;;;0.00;0.00;;;16.80;67.50;;;;;;5113951;28;20086;-81
2022/04/26 13:29:50;;;;;;;0.00;0.00;;;16.80;68.70;;;;;;5096616;28;20043;-81
2022/04/26 13:32:17;;;;;;;0.00;0.00;;;17.00;67.30;;;;;;5112947;28;20078;-81
2022/04/26 13:34:44;;;;;;;0.00;0.00;;;17.00;65.90;;;;;;5096679;28;20100;-81
2022/04/26 13:37:10;;;;;;;0.00;0.00;;;17.30;67.60;;;;;;5113830;28;20130;-81
2022/04/26 13:39:36;;;;;;;0.00;0.00;;;17.00;66.10;;;;;;5114047;28;20051;-81
2022/04/26 13:42:02;;;;;;;0.00;0.00;;;17.10;67.80;;;;;;5113721;28;20091;-81
2022/04/26 13:44:28;;;;;;;0.00;0.00;;;17.40;67.50;;;;;;5113691;28;20486;-81
2022/04/26 13:46:54;;;;;;;0.00;0.00;;;17.50;66.60;;;;;;5113899;28;20085;-81
2022/04/26 13:49:19;;;;;;;0.00;0.00;;;17.40;66.70;;;;;;5114142;28;20372;-81
2022/04/26 13:51:45;;;;;;;0.00;0.00;;;17.30;66.20;;;;;;5113432;28;20183;-81
2022/04/26 13:54:11;;;;;;;0.00;0.00;;;17.20;66.00;;;;;;5096213;28;20040;-81
2022/04/26 13:56:37;;;;;;;0.00;0.00;;;17.30;66.20;;;;;;5113074;28;20167;-81
2022/04/26 13:59:02;;;;;;;0.00;0.00;;;17.50;66.00;;;;;;5113142;28;20172;-81
2022/04/26 14:01:28;;;;;;;0.00;0.00;;;17.70;66.50;;;;;;5096335;28;20403;-81
2022/04/26 14:03:54;;;;;;;0.00;0.00;;;17.90;64.50;;;;;;5096056;28;20044;-81
2022/04/26 14:06:21;;;;;;;0.00;0.00;;;17.80;64.50;;;;;;5096061;28;20394;-78
2022/04/26 14:08:50;;;;;;;0.00;0.00;;;17.70;63.00;;;;;;5096443;28;20130;-79
2022/04/26 14:11:21;;;;;;;0.10;0.10;;;17.30;63.20;;;;;;5096159;28;20559;-79
2022/04/26 14:21:59;;;;;;;0.00;0.00;;;17.40;65.50;;;;;;5113186;28;20196;-81
2022/04/26 14:24:25;;;;;;;0.00;0.00;;;17.30;63.70;;;;;;5096811;28;20519;-79
2022/04/26 14:26:51;;;;;;;0.00;0.00;;;17.60;66.20;;;;;;5096067;28;20150;-79
2022/04/26 14:29:17;;;;;;;0.00;0.00;;;17.60;63.50;;;;;;5096382;28;20055;-81
2022/04/26 14:31:43;;;;;;;0.00;0.00;;;17.50;63.20;;;;;;5113065;28;20390;-81
2022/04/26 14:34:08;;;;;;;0.00;0.00;;;17.40;63.60;;;;;;5112798;28;20039;-81
2022/04/26 14:36:34;;;;;;;0.00;0.00;;;17.40;63.70;;;;;;5099674;28;20055;-81
2022/04/26 14:39:00;;;;;;;0.00;0.00;;;17.40;63.80;;;;;;5100278;28;20066;-80
2022/04/26 14:41:29;;;;;;;0.98;0.28;;;17.40;64.00;;;;;;5117375;28;20047;-81
2022/04/26 14:43:55;;;;;;;0.00;0.00;;;17.30;62.50;;;;;;5117133;28;20131;-81
2022/04/26 14:46:20;;;;;;;0.00;0.00;;;17.10;62.50;;;;;;5100057;28;20452;-81
2022/04/26 14:48:47;;;;;;;0.10;0.05;;;17.20;62.70;;;;;;5100032;28;20040;-81
2022/04/26 14:51:13;;;;;;;0.00;0.00;;;17.10;61.40;;;;;;5116595;28;20550;-81
2022/04/26 14:53:38;;;;;;;0.00;0.00;;;17.20;63.10;;;;;;5116992;28;20039;-81
2022/04/26 14:56:11;;;;;;;0.00;0.00;;;17.20;62.30;;;;;;5099489;28;20055;-78
2022/04/26 14:58:37;;;;;;;0.00;0.00;;;17.30;63.40;;;;;;5100053;28;20048;-81
2022/04/26 15:01:03;;;;;;;0.08;0.00;;;17.30;63.00;;;;;;5116818;28;20055;-81
2022/04/26 15:03:30;;;;;;;0.00;0.00;;;17.20;60.80;;;;;;5099611;28;20052;-81
2022/04/26 15:05:59;;;;;;;0.00;0.00;;;17.10;60.70;;;;;;5117070;28;20047;-81
2022/04/26 15:11:10;;;;;;;0.00;0.00;;;17.00;63.50;;;;;;5116841;28;20052;-81
2022/04/26 15:19:15;;;;;;;0.00;0.00;;;16.70;64.00;;;;;;5078403;28;20055;-81
2022/04/26 15:21:43;;;;;;;0.00;0.00;;;16.60;64.30;;;;;;5078135;28;20059;-81
2022/04/26 15:24:10;;;;;;;0.10;0.00;;;16.60;64.40;;;;;;5078123;28;20056;-81
2022/04/26 15:26:36;;;;;;;0.00;0.00;;;16.60;64.30;;;;;;5076814;28;20087;-81
2022/04/26 15:29:03;;;;;;;0.10;0.00;;;16.60;64.00;;;;;;5076485;28;20083;-81
2022/04/26 15:31:28;;;;;;;0.00;0.00;;;16.40;62.70;;;;;;5060494;28;20411;-82
2022/04/26 15:33:54;;;;;;;0.00;0.00;;;16.20;63.40;;;;;;5077948;28;20036;-81
2022/04/26 15:36:21;;;;;;;0.65;0.40;;;16.10;62.90;;;;;;5094494;28;20048;-81
2022/04/26 15:38:49;;;;;;;0.00;0.00;;;15.90;63.50;;;;;;5077816;28;20044;-81
2022/04/26 15:41:16;;;;;;;0.00;0.00;;;15.80;64.00;;;;;;5077611;28;20465;-81
2022/04/26 15:43:42;;;;;;;0.30;0.30;;;15.70;64.20;;;;;;5077338;28;20143;-81
2022/04/26 15:46:10;;;;;;;0.00;0.00;;;15.60;64.50;;;;;;5076795;28;20137;-81
2022/04/26 15:48:39;;;;;;;0.00;0.00;;;15.50;65.10;;;;;;5077440;28;20109;-81
2022/04/26 15:51:08;;;;;;;0.60;0.45;;;15.40;65.50;;;;;;5077415;28;20633;-81
2022/04/26 15:53:34;;;;;;;0.00;0.00;;;15.10;65.30;;;;;;5077458;28;20040;-81
2022/04/26 15:56:00;;;;;;;0.08;0.00;;;14.90;65.40;;;;;;5101114;28;20052;-81
2022/04/26 15:58:26;;;;;;;0.00;0.00;;;14.80;65.90;;;;;;5099694;28;20483;-81
2022/04/26 16:00:54;;;;;;;0.00;0.00;;;14.80;66.30;;;;;;5098603;28;20056;-81
2022/04/26 16:03:20;;;;;;;1.20;0.65;;;14.80;66.90;;;;;;5098557;28;20052;-81
2022/04/26 16:05:47;;;;;;;0.00;0.00;;;14.70;66.30;;;;;;5098283;28;20044;-81
2022/04/26 16:08:14;;;;;;;0.00;0.00;;;14.70;67.20;;;;;;5115523;28;20391;-81
2022/04/26 16:21:39;;;;;;;0.00;0.00;;;14.80;68.70;;;;;;5115347;28;20043;-81
2022/04/26 16:24:05;;;;;;;0.00;0.00;;;14.80;68.40;;;;;;5098619;28;20376;-81
2022/04/26 16:26:34;;;;;;;0.22;0.22;;;14.70;67.90;;;;;;5114862;28;20065;-81
2022/04/26 16:29:01;;;;;;;0.20;0.20;;;14.60;68.10;;;;;;5097962;28;20142;-85
2022/04/26 16:31:32;;;;;;;0.32;0.20;;;14.40;69.30;;;;;;5098048;28;20050;-86
2022/04/26 16:33:59;;;;;;;0.00;0.00;;;14.30;69.10;;;;;;5114640;28;20043;-85
2022/04/26 16:36:25;;;;;;;0.85;0.30;;;14.20;69.30;;;;;;5115093;28;20040;-85
2022/04/26 16:38:52;;;;;;;0.28;0.20;;;14.20;70.00;;;;;;5097893;28;20105;-82
2022/04/26 16:41:18;;;;;;;0.45;0.10;;;14.20;70.30;;;;;;5115006;28;20036;-81
2022/04/26 16:43:45;;;;;;;0.03;0.03;;;14.10;70.30;;;;;;5114773;28;20090;-80
2022/04/26 16:46:11;;;;;;;0.00;0.00;;;14.20;69.80;;;;;;5114623;28;20040;-81
2022/04/26 16:48:40;;;;;;;0.00;0.00;;;14.10;70.00;;;;;;5098176;28;20043;-81
2022/04/26 16:51:05;;;;;;;0.00;0.00;;;14.10;70.20;;;;;;5114529;28;20509;-81
2022/04/26 16:53:31;;;;;;;0.00;0.00;;;14.10;70.10;;;;;;5114598;28;20051;-81
2022/04/26 16:55:57;;;;;;;0.00;0.00;;;14.10;70.30;;;;;;5096971;28;20044;-81
2022/04/26 16:58:23;;;;;;;0.00;0.00;;;14.10;70.40;;;;;;5113889;28;20185;-82
2022/04/26 17:00:48;;;;;;;0.20;0.10;;;14.10;70.50;;;;;;5115157;28;20051;-81
2022/04/26 17:03:15;;;;;;;0.00;0.00;;;13.90;70.30;;;;;;5114433;28;20044;-81
2022/04/26 17:05:47;;;;;;;0.10;0.10;;;13.80;71.00;;;;;;5114369;28;20439;-81
2022/04/26 17:08:14;;;;;;;0.00;0.00;;;13.60;70.80;;;;;;5114556;28;20048;-81
2022/04/26 17:10:41;;;;;;;0.00;0.00;;;13.70;71.50;;;;;;5097357;28;20106;-81
2022/04/26 17:13:07;;;;;;;0.00;0.00;;;13.70;71.50;;;;;;5114253;28;20043;-81
2022/04/26 17:15:33;;;;;;;0.00;0.00;;;13.80;71.60;;;;;;5114328;28;20453;-81
2022/04/26 17:17:59;;;;;;;0.00;0.00;;;13.80;72.00;;;;;;5097213;28;20040;-80
2022/04/26 17:20:25;;;;;;;1.08;0.30;;;13.80;71.50;;;;;;5097552;28;20391;-80